KPAE

Snohomish County (Paine Field) Airport

Everett, Washington, USA
METAR KPAE 261253Z AUTO 12005KT 10SM BKN021 OVC026 09/07 A3012 RMK AO2 SLP200 T00940072
Observed Flight Rules
May-26 @ 12:53 UTC (30 minutes ago) Marginal Visual Flight Rules
Wind Visibility Clouds
120° at 5 knots 10 miles
  • Broken at 2,100' AGL
  • Overcast at 2,600' AGL
Temperatures Readings
Current 9°C / 48°F
Dewpoint 7°C / 45°F
Humidity 87%
Altimeter 30.12" Hg
Pressure 1020 hPa
Elevation 180
METAR KPAE 261253Z AUTO 12005KT 10SM BKN021 OVC026 09/07 A3012 RMK AO2 SLP200 T00940072
Observed Flight Rules
May-26 @ 12:53 UTC
(30 minutes ago)
MVFR
Wind Visibility
120° at 5 knots 10 miles
Clouds
  • Broken at 2,100' AGL
  • Overcast at 2,600' AGL
Temperature Dewpoint
9°C / 48°F 7°C / 45°F
Humidity Altimeter Pressure
87% 30.12" Hg 1020 hPa